sensor_id;sensor_type;location;lat;lon;timestamp;pressure;altitude;pressure_sealevel;temperature;humidity
25084;BME280;13075;55.682;37.564;2023-02-21T00:01:33;97242.09;;;-3.03;100.00
25084;BME280;13075;55.682;37.564;2023-02-21T00:04:17;97232.97;;;-4.01;100.00
25084;BME280;13075;55.682;37.564;2023-02-21T00:07:02;97237.59;;;-3.56;100.00
25084;BME280;13075;55.682;37.564;2023-02-21T00:09:46;97242.13;;;-4.05;100.00
25084;BME280;13075;55.682;37.564;2023-02-21T00:12:31;97236.28;;;-3.60;100.00
25084;BME280;13075;55.682;37.564;2023-02-21T00:15:15;97234.34;;;-3.66;100.00
25084;BME280;13075;55.682;37.564;2023-02-21T00:17:59;97230.72;;;-3.49;100.00
25084;BME280;13075;55.682;37.564;2023-02-21T00:20:44;97225.22;;;-3.70;100.00
25084;BME280;13075;55.682;37.564;2023-02-21T00:23:32;97224.53;;;-3.18;100.00
25084;BME280;13075;55.682;37.564;2023-02-21T00:26:18;97211.38;;;-3.40;100.00
25084;BME280;13075;55.682;37.564;2023-02-21T00:29:02;97219.28;;;-4.11;100.00
25084;BME280;13075;55.682;37.564;2023-02-21T00:31:46;97211.66;;;-3.66;100.00
25084;BME280;13075;55.682;37.564;2023-02-21T00:34:30;97213.81;;;-3.78;100.00
25084;BME280;13075;55.682;37.564;2023-02-21T00:37:14;97213.69;;;-3.92;100.00
25084;BME280;13075;55.682;37.564;2023-02-21T00:39:59;97211.69;;;-3.35;100.00
25084;BME280;13075;55.682;37.564;2023-02-21T00:42:43;97217.44;;;-3.09;100.00
25084;BME280;13075;55.682;37.564;2023-02-21T00:45:28;97214.97;;;-3.33;100.00
25084;BME280;13075;55.682;37.564;2023-02-21T00:48:12;97209.53;;;-3.62;100.00
25084;BME280;13075;55.682;37.564;2023-02-21T00:50:56;97198.31;;;-3.40;100.00
25084;BME280;13075;55.682;37.564;2023-02-21T00:53:40;97198.50;;;-3.42;100.00
25084;BME280;13075;55.682;37.564;2023-02-21T00:56:24;97187.75;;;-3.16;100.00
25084;BME280;13075;55.682;37.564;2023-02-21T00:59:08;97187.75;;;-3.47;100.00
25084;BME280;13075;55.682;37.564;2023-02-21T01:01:53;97187.75;;;-3.47;100.00
25084;BME280;13075;55.682;37.564;2023-02-21T01:04:37;97182.88;;;-3.58;100.00
25084;BME280;13075;55.682;37.564;2023-02-21T01:07:21;97176.53;;;-3.25;100.00
25084;BME280;13075;55.682;37.564;2023-02-21T01:10:05;97174.78;;;-3.09;100.00
25084;BME280;13075;55.682;37.564;2023-02-21T01:12:50;97176.38;;;-3.62;100.00
25084;BME280;13075;55.682;37.564;2023-02-21T01:15:34;97163.00;;;-3.28;100.00
25084;BME280;13075;55.682;37.564;2023-02-21T01:18:18;97171.41;;;-3.10;100.00
25084;BME280;13075;55.682;37.564;2023-02-21T01:21:02;97170.66;;;-3.27;100.00
25084;BME280;13075;55.682;37.564;2023-02-21T01:23:47;97171.03;;;-3.07;100.00
25084;BME280;13075;55.682;37.564;2023-02-21T01:26:31;97163.94;;;-2.98;100.00
25084;BME280;13075;55.682;37.564;2023-02-21T01:29:16;97160.28;;;-3.82;100.00
25084;BME280;13075;55.682;37.564;2023-02-21T01:32:00;97161.03;;;-4.12;100.00
25084;BME280;13075;55.682;37.564;2023-02-21T01:34:44;97156.38;;;-3.78;100.00
25084;BME280;13075;55.682;37.564;2023-02-21T01:37:28;97159.66;;;-3.92;100.00
25084;BME280;13075;55.682;37.564;2023-02-21T01:40:15;97158.72;;;-3.99;100.00
25084;BME280;13075;55.682;37.564;2023-02-21T01:43:00;97157.00;;;-4.30;100.00
25084;BME280;13075;55.682;37.564;2023-02-21T01:45:47;97153.38;;;-4.13;100.00
25084;BME280;13075;55.682;37.564;2023-02-21T01:48:33;97155.72;;;-4.34;100.00
25084;BME280;13075;55.682;37.564;2023-02-21T01:51:24;97149.94;;;-4.06;100.00
25084;BME280;13075;55.682;37.564;2023-02-21T01:54:10;97158.22;;;-3.94;100.00
25084;BME280;13075;55.682;37.564;2023-02-21T01:56:58;97166.16;;;-4.59;100.00
25084;BME280;13075;55.682;37.564;2023-02-21T01:59:43;97161.56;;;-4.24;100.00
25084;BME280;13075;55.682;37.564;2023-02-21T02:02:49;97161.06;;;-4.28;100.00
25084;BME280;13075;55.682;37.564;2023-02-21T02:05:37;97167.94;;;-4.59;100.00
25084;BME280;13075;55.682;37.564;2023-02-21T02:08:26;97169.44;;;-4.81;100.00
25084;BME280;13075;55.682;37.564;2023-02-21T02:14:48;97164.38;;;-4.98;100.00
25084;BME280;13075;55.682;37.564;2023-02-21T02:20:28;97155.50;;;-4.17;100.00
25084;BME280;13075;55.682;37.564;2023-02-21T02:26:02;97163.06;;;-4.78;100.00
25084;BME280;13075;55.682;37.564;2023-02-21T02:36:52;97170.19;;;-5.37;100.00
25084;BME280;13075;55.682;37.564;2023-02-21T02:39:39;97170.50;;;-5.32;100.00
25084;BME280;13075;55.682;37.564;2023-02-21T02:42:14;97167.22;;;-5.34;100.00
25084;BME280;13075;55.682;37.564;2023-02-21T02:44:49;97170.03;;;-5.85;100.00
25084;BME280;13075;55.682;37.564;2023-02-21T02:47:22;97170.50;;;-5.40;100.00
25084;BME280;13075;55.682;37.564;2023-02-21T02:49:50;97161.22;;;-5.42;100.00
25084;BME280;13075;55.682;37.564;2023-02-21T02:52:16;97167.22;;;-5.50;100.00
25084;BME280;13075;55.682;37.564;2023-02-21T02:54:42;97166.38;;;-5.58;100.00
25084;BME280;13075;55.682;37.564;2023-02-21T02:57:09;97158.44;;;-5.41;100.00
25084;BME280;13075;55.682;37.564;2023-02-21T02:59:41;97157.81;;;-5.27;100.00
25084;BME280;13075;55.682;37.564;2023-02-21T03:02:51;97157.25;;;-5.54;100.00
25084;BME280;13075;55.682;37.564;2023-02-21T03:13:52;97156.59;;;-5.56;100.00
25084;BME280;13075;55.682;37.564;2023-02-21T03:17:00;97164.59;;;-5.50;100.00
25084;BME280;13075;55.682;37.564;2023-02-21T03:19:34;97168.09;;;-5.09;100.00
25084;BME280;13075;55.682;37.564;2023-02-21T03:22:15;97171.53;;;-5.00;98.91
25084;BME280;13075;55.682;37.564;2023-02-21T03:24:44;97175.91;;;-5.17;97.41
25084;BME280;13075;55.682;37.564;2023-02-21T03:27:13;97165.97;;;-5.22;96.46
25084;BME280;13075;55.682;37.564;2023-02-21T03:29:51;97173.31;;;-5.67;98.09
25084;BME280;13075;55.682;37.564;2023-02-21T03:32:40;97161.25;;;-5.10;99.38
25084;BME280;13075;55.682;37.564;2023-02-21T03:35:08;97167.16;;;-5.66;99.21
25084;BME280;13075;55.682;37.564;2023-02-21T03:37:41;97162.69;;;-5.82;100.00
25084;BME280;13075;55.682;37.564;2023-02-21T03:40:11;97163.81;;;-5.84;100.00
25084;BME280;13075;55.682;37.564;2023-02-21T03:42:38;97163.16;;;-5.94;100.00
25084;BME280;13075;55.682;37.564;2023-02-21T03:45:04;97153.00;;;-5.63;100.00
25084;BME280;13075;55.682;37.564;2023-02-21T03:47:31;97155.53;;;-5.30;100.00
25084;BME280;13075;55.682;37.564;2023-02-21T03:49:57;97162.16;;;-5.51;100.00
25084;BME280;13075;55.682;37.564;2023-02-21T03:52:23;97147.75;;;-5.14;99.22
25084;BME280;13075;55.682;37.564;2023-02-21T03:54:49;97148.88;;;-5.16;97.88
25084;BME280;13075;55.682;37.564;2023-02-21T03:57:18;97147.91;;;-4.59;96.07
25084;BME280;13075;55.682;37.564;2023-02-21T03:59:46;97143.19;;;-4.63;93.48
25084;BME280;13075;55.682;37.564;2023-02-21T04:02:12;97131.94;;;-5.20;92.47
25084;BME280;13075;55.682;37.564;2023-02-21T04:04:39;97149.38;;;-5.13;96.94
25084;BME280;13075;55.682;37.564;2023-02-21T04:07:07;97144.66;;;-5.17;94.55
25084;BME280;13075;55.682;37.564;2023-02-21T04:09:34;97150.47;;;-5.31;100.00
25084;BME280;13075;55.682;37.564;2023-02-21T04:12:00;97139.78;;;-4.88;97.33
25084;BME280;13075;55.682;37.564;2023-02-21T04:14:26;97146.94;;;-5.06;97.87
25084;BME280;13075;55.682;37.564;2023-02-21T04:16:52;97152.16;;;-5.06;92.85
25084;BME280;13075;55.682;37.564;2023-02-21T04:19:18;97153.63;;;-5.03;94.70
25084;BME280;13075;55.682;37.564;2023-02-21T04:21:44;97156.22;;;-5.12;94.93
25084;BME280;13075;55.682;37.564;2023-02-21T04:24:10;97149.03;;;-5.10;94.55
25084;BME280;13075;55.682;37.564;2023-02-21T04:26:35;97153.53;;;-5.44;94.25
25084;BME280;13075;55.682;37.564;2023-02-21T04:29:03;97156.78;;;-6.00;97.77
25084;BME280;13075;55.682;37.564;2023-02-21T04:31:30;97162.19;;;-5.93;100.00
25084;BME280;13075;55.682;37.564;2023-02-21T04:34:01;97161.88;;;-5.90;100.00
25084;BME280;13075;55.682;37.564;2023-02-21T04:36:26;97169.25;;;-6.11;100.00
25084;BME280;13075;55.682;37.564;2023-02-21T04:38:53;97171.44;;;-6.24;100.00
25084;BME280;13075;55.682;37.564;2023-02-21T04:41:19;97168.13;;;-6.09;100.00
25084;BME280;13075;55.682;37.564;2023-02-21T04:43:45;97176.28;;;-6.29;100.00
25084;BME280;13075;55.682;37.564;2023-02-21T04:46:12;97171.72;;;-6.36;100.00
25084;BME280;13075;55.682;37.564;2023-02-21T04:48:46;97170.91;;;-6.36;99.09
25084;BME280;13075;55.682;37.564;2023-02-21T04:51:13;97176.00;;;-5.93;96.66
25084;BME280;13075;55.682;37.564;2023-02-21T04:53:40;97180.91;;;-5.90;96.18
25084;BME280;13075;55.682;37.564;2023-02-21T04:56:06;97180.59;;;-6.46;98.85
25084;BME280;13075;55.682;37.564;2023-02-21T04:58:32;97183.47;;;-5.98;98.69
25084;BME280;13075;55.682;37.564;2023-02-21T05:00:58;97169.69;;;-5.82;96.57
25084;BME280;13075;55.682;37.564;2023-02-21T05:03:23;97179.13;;;-5.81;93.90
25084;BME280;13075;55.682;37.564;2023-02-21T05:05:50;97185.94;;;-5.88;93.43
25084;BME280;13075;55.682;37.564;2023-02-21T05:08:15;97184.66;;;-5.84;95.24
25084;BME280;13075;55.682;37.564;2023-02-21T05:10:41;97185.59;;;-5.93;92.94
25084;BME280;13075;55.682;37.564;2023-02-21T05:13:06;97180.13;;;-6.42;93.53
25084;BME280;13075;55.682;37.564;2023-02-21T05:15:32;97176.16;;;-6.28;97.03
25084;BME280;13075;55.682;37.564;2023-02-21T05:17:58;97179.22;;;-6.07;95.44
25084;BME280;13075;55.682;37.564;2023-02-21T05:20:23;97185.75;;;-5.95;93.63
25084;BME280;13075;55.682;37.564;2023-02-21T05:22:49;97185.38;;;-6.34;92.86
25084;BME280;13075;55.682;37.564;2023-02-21T05:25:20;97181.72;;;-5.89;87.86
25084;BME280;13075;55.682;37.564;2023-02-21T05:27:46;97177.16;;;-5.37;87.43
25084;BME280;13075;55.682;37.564;2023-02-21T05:30:13;97184.47;;;-5.41;86.58
25084;BME280;13075;55.682;37.564;2023-02-21T05:32:39;97183.97;;;-5.52;84.34
25084;BME280;13075;55.682;37.564;2023-02-21T05:35:06;97190.59;;;-4.92;84.99
25084;BME280;13075;55.682;37.564;2023-02-21T05:37:32;97185.84;;;-5.13;83.39
25084;BME280;13075;55.682;37.564;2023-02-21T05:39:58;97187.66;;;-5.05;82.24
25084;BME280;13075;55.682;37.564;2023-02-21T05:42:24;97191.22;;;-4.98;81.55
25084;BME280;13075;55.682;37.564;2023-02-21T05:44:49;97184.25;;;-4.81;79.55
25084;BME280;13075;55.682;37.564;2023-02-21T05:47:15;97178.31;;;-5.40;79.67
25084;BME280;13075;55.682;37.564;2023-02-21T05:49:41;97194.00;;;-5.65;78.33
25084;BME280;13075;55.682;37.564;2023-02-21T05:52:11;97188.75;;;-5.74;76.55
25084;BME280;13075;55.682;37.564;2023-02-21T05:54:37;97188.06;;;-5.92;78.18
25084;BME280;13075;55.682;37.564;2023-02-21T05:57:03;97189.91;;;-5.76;78.60
25084;BME280;13075;55.682;37.564;2023-02-21T05:59:29;97184.47;;;-5.41;78.13
25084;BME280;13075;55.682;37.564;2023-02-21T06:01:55;97181.66;;;-4.81;75.00
25084;BME280;13075;55.682;37.564;2023-02-21T06:04:22;97184.69;;;-5.18;70.03
25084;BME280;13075;55.682;37.564;2023-02-21T06:06:48;97190.97;;;-5.95;73.09
25084;BME280;13075;55.682;37.564;2023-02-21T06:09:14;97174.81;;;-4.90;73.42
25084;BME280;13075;55.682;37.564;2023-02-21T06:11:39;97180.72;;;-3.85;70.22
25084;BME280;13075;55.682;37.564;2023-02-21T06:14:12;97170.56;;;-2.65;62.59
25084;BME280;13075;55.682;37.564;2023-02-21T06:16:38;97172.66;;;-2.83;60.93
25084;BME280;13075;55.682;37.564;2023-02-21T06:19:05;97173.13;;;-2.57;58.54
25084;BME280;13075;55.682;37.564;2023-02-21T06:21:32;97175.81;;;-2.88;58.61
25084;BME280;13075;55.682;37.564;2023-02-21T06:23:58;97171.09;;;-1.15;57.44
25084;BME280;13075;55.682;37.564;2023-02-21T06:26:24;97163.09;;;0.93;53.05
25084;BME280;13075;55.682;37.564;2023-02-21T06:28:50;97168.50;;;1.65;48.75
25084;BME280;13075;55.682;37.564;2023-02-21T06:31:17;97159.50;;;2.45;47.22
25084;BME280;13075;55.682;37.564;2023-02-21T06:33:43;97161.06;;;2.66;46.09
25084;BME280;13075;55.682;37.564;2023-02-21T06:36:14;97160.81;;;1.64;45.53
25084;BME280;13075;55.682;37.564;2023-02-21T06:38:44;97164.81;;;1.27;46.56
25084;BME280;13075;55.682;37.564;2023-02-21T06:41:10;97163.22;;;1.46;47.84
25084;BME280;13075;55.682;37.564;2023-02-21T06:43:36;97172.56;;;0.81;47.33
25084;BME280;13075;55.682;37.564;2023-02-21T06:46:02;97172.97;;;-0.25;49.00
25084;BME280;13075;55.682;37.564;2023-02-21T06:48:29;97175.03;;;0.42;48.66
25084;BME280;13075;55.682;37.564;2023-02-21T06:50:55;97167.69;;;0.31;48.41
25084;BME280;13075;55.682;37.564;2023-02-21T06:53:20;97174.56;;;-0.94;49.73
25084;BME280;13075;55.682;37.564;2023-02-21T06:55:46;97182.81;;;-0.76;50.38
25084;BME280;13075;55.682;37.564;2023-02-21T06:58:12;97167.81;;;0.57;48.56
25084;BME280;13075;55.682;37.564;2023-02-21T07:00:37;97163.38;;;3.38;45.71
25084;BME280;13075;55.682;37.564;2023-02-21T07:03:03;97159.50;;;3.65;45.21
25084;BME280;13075;55.682;37.564;2023-02-21T07:05:29;97160.91;;;3.67;44.21
25084;BME280;13075;55.682;37.564;2023-02-21T07:07:59;97171.06;;;3.39;45.22
25084;BME280;13075;55.682;37.564;2023-02-21T07:10:25;97172.72;;;1.20;45.76
25084;BME280;13075;55.682;37.564;2023-02-21T07:12:51;97179.28;;;0.43;46.45
25084;BME280;13075;55.682;37.564;2023-02-21T07:15:16;97179.81;;;0.66;46.96
25084;BME280;13075;55.682;37.564;2023-02-21T07:17:42;97176.59;;;0.71;46.68
25084;BME280;13075;55.682;37.564;2023-02-21T07:20:08;97176.81;;;2.85;45.21
25084;BME280;13075;55.682;37.564;2023-02-21T07:22:34;97170.56;;;6.26;43.75
25084;BME280;13075;55.682;37.564;2023-02-21T07:24:59;97158.78;;;7.08;44.25
25084;BME280;13075;55.682;37.564;2023-02-21T07:27:25;97168.25;;;5.95;44.97
25084;BME280;13075;55.682;37.564;2023-02-21T07:29:50;97162.84;;;6.24;45.77
25084;BME280;13075;55.682;37.564;2023-02-21T07:32:16;97162.81;;;6.71;45.97
25084;BME280;13075;55.682;37.564;2023-02-21T07:34:42;97157.16;;;7.07;45.43
25084;BME280;13075;55.682;37.564;2023-02-21T07:37:09;97165.38;;;6.08;45.25
25084;BME280;13075;55.682;37.564;2023-02-21T07:39:35;97183.00;;;2.53;44.94
25084;BME280;13075;55.682;37.564;2023-02-21T07:42:00;97174.66;;;4.01;43.93
25084;BME280;13075;55.682;37.564;2023-02-21T07:44:28;97180.66;;;4.75;43.49
25084;BME280;13075;55.682;37.564;2023-02-21T07:46:55;97180.06;;;4.55;43.40
25084;BME280;13075;55.682;37.564;2023-02-21T07:49:22;97178.88;;;3.84;43.91
25084;BME280;13075;55.682;37.564;2023-02-21T07:51:47;97183.59;;;3.50;44.10
25084;BME280;13075;55.682;37.564;2023-02-21T07:54:14;97188.56;;;2.25;43.70
25084;BME280;13075;55.682;37.564;2023-02-21T07:56:44;97195.19;;;1.23;44.13
25084;BME280;13075;55.682;37.564;2023-02-21T07:59:10;97190.34;;;1.33;45.59
25084;BME280;13075;55.682;37.564;2023-02-21T08:01:35;97213.47;;;-0.97;46.75
25084;BME280;13075;55.682;37.564;2023-02-21T08:04:01;97207.38;;;-1.19;47.28
25084;BME280;13075;55.682;37.564;2023-02-21T08:06:27;97209.72;;;-1.97;47.55
25084;BME280;13075;55.682;37.564;2023-02-21T08:08:52;97204.38;;;-0.59;48.39
25084;BME280;13075;55.682;37.564;2023-02-21T08:11:18;97210.13;;;-0.70;47.86
25084;BME280;13075;55.682;37.564;2023-02-21T08:13:44;97213.16;;;-1.23;48.55
25084;BME280;13075;55.682;37.564;2023-02-21T08:16:09;97202.38;;;-1.29;48.11
25084;BME280;13075;55.682;37.564;2023-02-21T08:18:35;97205.97;;;-1.00;48.11
25084;BME280;13075;55.682;37.564;2023-02-21T08:21:00;97209.25;;;-1.13;47.77
25084;BME280;13075;55.682;37.564;2023-02-21T08:23:26;97198.25;;;-0.24;48.81
25084;BME280;13075;55.682;37.564;2023-02-21T08:25:52;97193.28;;;-0.33;48.10
25084;BME280;13075;55.682;37.564;2023-02-21T08:28:17;97201.88;;;0.03;47.20
25084;BME280;13075;55.682;37.564;2023-02-21T08:30:43;97205.41;;;0.17;47.09
25084;BME280;13075;55.682;37.564;2023-02-21T08:33:08;97200.97;;;-0.11;47.46
25084;BME280;13075;55.682;37.564;2023-02-21T08:35:35;97203.72;;;0.03;47.60
25084;BME280;13075;55.682;37.564;2023-02-21T08:38:01;97201.81;;;0.24;46.87
25084;BME280;13075;55.682;37.564;2023-02-21T08:40:30;97209.75;;;-0.46;46.31
25084;BME280;13075;55.682;37.564;2023-02-21T08:42:58;97225.19;;;-0.79;47.67
25084;BME280;13075;55.682;37.564;2023-02-21T08:45:25;97215.38;;;-0.70;47.59
25084;BME280;13075;55.682;37.564;2023-02-21T08:47:52;97215.88;;;-0.60;47.73
25084;BME280;13075;55.682;37.564;2023-02-21T08:50:19;97217.31;;;-0.79;48.20
25084;BME280;13075;55.682;37.564;2023-02-21T08:52:47;97216.00;;;-0.68;48.10
25084;BME280;13075;55.682;37.564;2023-02-21T08:55:12;97206.38;;;-0.40;47.67
25084;BME280;13075;55.682;37.564;2023-02-21T08:57:38;97208.44;;;-0.56;47.96
25084;BME280;13075;55.682;37.564;2023-02-21T09:00:05;97205.69;;;-0.27;47.83
25084;BME280;13075;55.682;37.564;2023-02-21T09:02:35;97209.81;;;-0.60;48.31
25084;BME280;13075;55.682;37.564;2023-02-21T09:05:10;97211.47;;;-0.95;47.48
25084;BME280;13075;55.682;37.564;2023-02-21T09:07:36;97218.22;;;-1.22;48.35
25084;BME280;13075;55.682;37.564;2023-02-21T09:10:03;97219.75;;;-2.01;49.05
25084;BME280;13075;55.682;37.564;2023-02-21T09:12:29;97222.97;;;-0.96;48.60
25084;BME280;13075;55.682;37.564;2023-02-21T09:14:54;97212.28;;;-0.10;47.02
25084;BME280;13075;55.682;37.564;2023-02-21T09:17:20;97214.59;;;0.27;46.04
25084;BME280;13075;55.682;37.564;2023-02-21T09:19:46;97217.16;;;0.21;46.09
25084;BME280;13075;55.682;37.564;2023-02-21T09:22:11;97207.94;;;-0.24;46.11
25084;BME280;13075;55.682;37.564;2023-02-21T09:24:37;97207.88;;;-0.31;45.89
25084;BME280;13075;55.682;37.564;2023-02-21T09:27:03;97220.22;;;-1.24;47.19
25084;BME280;13075;55.682;37.564;2023-02-21T09:29:31;97217.75;;;-0.75;47.41
25084;BME280;13075;55.682;37.564;2023-02-21T09:31:58;97202.41;;;-0.57;46.28
25084;BME280;13075;55.682;37.564;2023-02-21T09:34:24;97213.31;;;-0.53;47.05
25084;BME280;13075;55.682;37.564;2023-02-21T09:36:49;97217.44;;;-0.66;46.73
25084;BME280;13075;55.682;37.564;2023-02-21T09:39:16;97211.63;;;-0.40;47.06
25084;BME280;13075;55.682;37.564;2023-02-21T09:41:42;97217.81;;;0.29;45.92
25084;BME280;13075;55.682;37.564;2023-02-21T09:44:13;97214.47;;;0.08;46.00
25084;BME280;13075;55.682;37.564;2023-02-21T09:46:41;97209.34;;;-0.01;46.74
25084;BME280;13075;55.682;37.564;2023-02-21T09:51:58;97204.63;;;0.57;46.04
25084;BME280;13075;55.682;37.564;2023-02-21T09:56:56;97210.59;;;1.26;45.37
25084;BME280;13075;55.682;37.564;2023-02-21T09:59:24;97194.16;;;1.17;45.93
25084;BME280;13075;55.682;37.564;2023-02-21T10:21:23;97230.47;;;-0.72;46.96
25084;BME280;13075;55.682;37.564;2023-02-21T10:23:51;97219.03;;;0.27;46.08
25084;BME280;13075;55.682;37.564;2023-02-21T10:26:28;97227.97;;;0.05;45.73
25084;BME280;13075;55.682;37.564;2023-02-21T10:28:55;97220.22;;;-0.31;45.75
25084;BME280;13075;55.682;37.564;2023-02-21T10:31:34;97220.31;;;-0.18;45.76
25084;BME280;13075;55.682;37.564;2023-02-21T10:34:06;97227.81;;;0.40;46.18
25084;BME280;13075;55.682;37.564;2023-02-21T10:36:33;97222.13;;;-0.19;46.11
25084;BME280;13075;55.682;37.564;2023-02-21T10:39:14;97232.34;;;-0.03;45.94
25084;BME280;13075;55.682;37.564;2023-02-21T10:41:42;97242.50;;;-0.63;46.12
25084;BME280;13075;55.682;37.564;2023-02-21T10:44:24;97240.16;;;-0.16;46.39
25084;BME280;13075;55.682;37.564;2023-02-21T10:46:59;97244.06;;;-0.69;45.84
25084;BME280;13075;55.682;37.564;2023-02-21T10:52:19;97263.97;;;-0.59;46.39
25084;BME280;13075;55.682;37.564;2023-02-21T10:55:13;97260.03;;;-0.28;45.73
25084;BME280;13075;55.682;37.564;2023-02-21T10:57:42;97270.19;;;-0.96;45.74
25084;BME280;13075;55.682;37.564;2023-02-21T11:00:18;97278.25;;;-1.42;47.16
25084;BME280;13075;55.682;37.564;2023-02-21T11:02:46;97268.56;;;-0.83;46.85
25084;BME280;13075;55.682;37.564;2023-02-21T11:05:18;97273.34;;;-0.86;47.06
25084;BME280;13075;55.682;37.564;2023-02-21T11:07:57;97269.22;;;-1.10;46.87
25084;BME280;13075;55.682;37.564;2023-02-21T11:13:06;97277.63;;;-1.58;47.19
25084;BME280;13075;55.682;37.564;2023-02-21T11:15:37;97268.47;;;-1.18;47.42
25084;BME280;13075;55.682;37.564;2023-02-21T11:18:12;97274.25;;;-1.52;47.83
25084;BME280;13075;55.682;37.564;2023-02-21T11:20:39;97281.91;;;-1.80;48.64
25084;BME280;13075;55.682;37.564;2023-02-21T11:23:20;97286.13;;;-1.56;48.29
25084;BME280;13075;55.682;37.564;2023-02-21T11:25:46;97289.00;;;-1.37;48.30
25084;BME280;13075;55.682;37.564;2023-02-21T11:30:44;97289.81;;;-1.65;49.24
25084;BME280;13075;55.682;37.564;2023-02-21T11:33:11;97289.44;;;-1.77;49.06
25084;BME280;13075;55.682;37.564;2023-02-21T11:35:51;97288.38;;;-1.68;48.98
25084;BME280;13075;55.682;37.564;2023-02-21T11:38:35;97295.97;;;-1.58;48.70
25084;BME280;13075;55.682;37.564;2023-02-21T11:41:16;97300.41;;;-0.86;48.19
25084;BME280;13075;55.682;37.564;2023-02-21T11:43:52;97301.94;;;-1.20;48.42
25084;BME280;13075;55.682;37.564;2023-02-21T11:52:05;97311.25;;;-1.99;46.43
25084;BME280;13075;55.682;37.564;2023-02-21T11:54:33;97307.41;;;-2.34;47.79
25084;BME280;13075;55.682;37.564;2023-02-21T12:10:54;97326.72;;;-1.90;48.69
25084;BME280;13075;55.682;37.564;2023-02-21T12:27:51;97346.47;;;-1.64;47.83
25084;BME280;13075;55.682;37.564;2023-02-21T12:49:23;97370.97;;;-1.57;49.14
25084;BME280;13075;55.682;37.564;2023-02-21T12:52:14;97379.28;;;-1.68;49.50
25084;BME280;13075;55.682;37.564;2023-02-21T12:57:58;97383.88;;;-1.18;49.59
25084;BME280;13075;55.682;37.564;2023-02-21T13:05:45;97387.31;;;-1.33;49.52
25084;BME280;13075;55.682;37.564;2023-02-21T13:08:27;97389.91;;;-1.47;49.01
25084;BME280;13075;55.682;37.564;2023-02-21T13:13:30;97399.03;;;-1.43;50.09
25084;BME280;13075;55.682;37.564;2023-02-21T13:16:04;97406.66;;;-1.71;49.22
25084;BME280;13075;55.682;37.564;2023-02-21T13:18:53;97406.75;;;-1.64;50.04
25084;BME280;13075;55.682;37.564;2023-02-21T13:24:13;97419.59;;;-2.54;49.85
25084;BME280;13075;55.682;37.564;2023-02-21T13:29:27;97434.50;;;-2.62;50.54
25084;BME280;13075;55.682;37.564;2023-02-21T13:32:03;97435.59;;;-2.48;50.39
25084;BME280;13075;55.682;37.564;2023-02-21T13:34:36;97439.03;;;-2.17;50.22
25084;BME280;13075;55.682;37.564;2023-02-21T13:37:06;97445.34;;;-2.42;50.50
25084;BME280;13075;55.682;37.564;2023-02-21T13:39:33;97451.16;;;-2.24;50.49
25084;BME280;13075;55.682;37.564;2023-02-21T13:42:09;97461.00;;;-2.65;50.78
25084;BME280;13075;55.682;37.564;2023-02-21T13:44:42;97454.25;;;-2.52;50.94
25084;BME280;13075;55.682;37.564;2023-02-21T13:47:17;97465.25;;;-2.64;50.97
25084;BME280;13075;55.682;37.564;2023-02-21T13:49:57;97463.28;;;-2.70;50.81
25084;BME280;13075;55.682;37.564;2023-02-21T14:08:30;97502.09;;;-2.98;51.56
25084;BME280;13075;55.682;37.564;2023-02-21T14:17:07;97524.50;;;-3.36;52.11
25084;BME280;13075;55.682;37.564;2023-02-21T14:24:35;97538.41;;;-3.11;51.96
25084;BME280;13075;55.682;37.564;2023-02-21T14:29:43;97542.66;;;-3.92;53.52
25084;BME280;13075;55.682;37.564;2023-02-21T14:37:34;97561.03;;;-3.68;53.67
25084;BME280;13075;55.682;37.564;2023-02-21T14:48:00;97584.09;;;-4.31;56.42
25084;BME280;13075;55.682;37.564;2023-02-21T14:54:00;97587.44;;;-4.55;56.80
25084;BME280;13075;55.682;37.564;2023-02-21T15:04:22;97617.66;;;-4.44;58.68
25084;BME280;13075;55.682;37.564;2023-02-21T15:06:58;97635.09;;;-4.88;59.21
25084;BME280;13075;55.682;37.564;2023-02-21T15:09:25;97624.81;;;-4.89;58.95
25084;BME280;13075;55.682;37.564;2023-02-21T15:11:50;97630.22;;;-4.65;59.28
25084;BME280;13075;55.682;37.564;2023-02-21T15:14:19;97635.03;;;-4.53;59.56
25084;BME280;13075;55.682;37.564;2023-02-21T15:17:00;97643.22;;;-5.09;60.32
25084;BME280;13075;55.682;37.564;2023-02-21T15:19:34;97640.06;;;-4.77;59.77
25084;BME280;13075;55.682;37.564;2023-02-21T15:22:15;97648.97;;;-4.62;59.45
25084;BME280;13075;55.682;37.564;2023-02-21T15:25:17;97638.78;;;-4.29;58.74
25084;BME280;13075;55.682;37.564;2023-02-21T15:33:06;97664.88;;;-4.04;59.35
25084;BME280;13075;55.682;37.564;2023-02-21T15:35:38;97667.00;;;-4.25;59.38
25084;BME280;13075;55.682;37.564;2023-02-21T15:44:06;97685.66;;;-4.63;60.18
25084;BME280;13075;55.682;37.564;2023-02-21T15:46:52;97686.28;;;-4.18;60.19
25084;BME280;13075;55.682;37.564;2023-02-21T15:49:42;97684.38;;;-3.90;59.39
25084;BME280;13075;55.682;37.564;2023-02-21T15:52:41;97698.78;;;-3.78;58.37
25084;BME280;13075;55.682;37.564;2023-02-21T15:58:16;97712.72;;;-4.21;60.16
25084;BME280;13075;55.682;37.564;2023-02-21T16:00:47;97712.63;;;-4.11;59.52
25084;BME280;13075;55.682;37.564;2023-02-21T16:03:38;97716.34;;;-3.88;58.59
25084;BME280;13075;55.682;37.564;2023-02-21T16:06:24;97726.81;;;-4.14;58.63
25084;BME280;13075;55.682;37.564;2023-02-21T16:09:05;97729.84;;;-4.62;58.50
25084;BME280;13075;55.682;37.564;2023-02-21T16:11:48;97734.75;;;-4.41;59.64
25084;BME280;13075;55.682;37.564;2023-02-21T16:14:40;97734.44;;;-4.38;60.29
25084;BME280;13075;55.682;37.564;2023-02-21T16:17:31;97741.94;;;-3.92;60.42
25084;BME280;13075;55.682;37.564;2023-02-21T16:20:01;97753.50;;;-4.20;59.36
25084;BME280;13075;55.682;37.564;2023-02-21T16:22:38;97757.19;;;-4.05;59.47
25084;BME280;13075;55.682;37.564;2023-02-21T16:27:47;97768.56;;;-4.84;60.99
25084;BME280;13075;55.682;37.564;2023-02-21T16:30:22;97767.78;;;-4.50;62.60
25084;BME280;13075;55.682;37.564;2023-02-21T16:32:50;97763.06;;;-4.81;62.12
25084;BME280;13075;55.682;37.564;2023-02-21T16:35:20;97771.44;;;-4.78;63.07
25084;BME280;13075;55.682;37.564;2023-02-21T16:37:51;97773.09;;;-5.04;61.67